createdAt,value
2022-08-20T07:46:21.584Z,20.30
2022-08-20T07:48:50.229Z,20.30
2022-08-20T07:51:20.326Z,20.30
2022-08-20T07:53:48.782Z,20.30
2022-08-20T07:56:19.272Z,20.40
2022-08-20T07:58:50.334Z,20.50
2022-08-20T08:01:20.178Z,20.50
2022-08-20T08:03:49.820Z,20.40
2022-08-20T08:06:19.679Z,20.40
2022-08-20T08:08:55.845Z,20.50
2022-08-20T08:11:22.843Z,20.50
2022-08-20T08:13:49.573Z,20.50
2022-08-20T08:16:16.325Z,20.60
2022-08-20T08:18:50.376Z,20.50
2022-08-20T08:21:18.430Z,20.50
2022-08-20T08:23:45.388Z,20.50
2022-08-20T08:26:17.812Z,20.50
2022-08-20T08:28:46.182Z,20.50
2022-08-20T08:31:13.297Z,20.50
2022-08-20T08:33:40.661Z,20.50
2022-08-20T08:36:13.530Z,20.50
2022-08-20T08:38:44.210Z,20.50
2022-08-20T08:41:33.975Z,20.50
2022-08-20T08:44:23.633Z,20.40
2022-08-20T08:47:19.147Z,20.50
2022-08-20T08:49:47.900Z,20.50
2022-08-20T08:52:22.248Z,20.50
2022-08-20T08:54:53.998Z,20.50
2022-08-20T08:57:20.644Z,20.60
2022-08-20T09:00:04.848Z,20.60
2022-08-20T09:02:35.241Z,20.70
2022-08-20T09:05:09.522Z,20.80
2022-08-20T09:07:37.863Z,20.90
2022-08-20T09:10:06.606Z,20.80
2022-08-20T09:12:33.244Z,20.80
2022-08-20T09:14:59.831Z,20.70
2022-08-20T09:17:26.420Z,20.80
2022-08-20T09:19:53.031Z,20.80
2022-08-20T09:22:25.530Z,20.80
2022-08-20T09:24:52.529Z,20.70
2022-08-20T09:27:19.413Z,20.80
2022-08-20T09:29:46.577Z,20.80
2022-08-20T09:32:23.901Z,20.80
2022-08-20T09:34:56.634Z,21.00
2022-08-20T09:37:25.802Z,21.10
2022-08-20T09:39:52.667Z,21.10
2022-08-20T09:42:28.587Z,21.10
2022-08-20T09:44:55.662Z,21.10
2022-08-20T09:47:22.586Z,21.20
2022-08-20T09:49:49.431Z,21.10
2022-08-20T09:52:29.466Z,21.20
2022-08-20T09:55:02.576Z,21.30
2022-08-20T09:57:31.435Z,21.40
2022-08-20T10:00:08.716Z,21.40
2022-08-20T10:02:35.862Z,21.50
2022-08-20T10:05:02.627Z,21.40
2022-08-20T10:07:29.563Z,21.50
2022-08-20T10:09:56.327Z,21.50
2022-08-20T10:12:23.976Z,21.50
2022-08-20T10:14:50.600Z,21.70
2022-08-20T10:17:17.271Z,21.70
2022-08-20T10:19:43.877Z,21.70
2022-08-20T10:22:10.462Z,21.60
2022-08-20T10:24:37.051Z,21.50
2022-08-20T10:27:04.007Z,21.50
2022-08-20T10:29:31.544Z,21.60
2022-08-20T10:32:09.620Z,21.70
2022-08-20T10:34:36.220Z,21.70
2022-08-20T10:37:02.840Z,21.80
2022-08-20T10:39:29.432Z,21.90
2022-08-20T10:41:58.263Z,22.00
2022-08-20T10:44:24.868Z,21.90
2022-08-20T10:46:51.900Z,21.90
2022-08-20T10:49:23.790Z,21.90
2022-08-20T10:51:50.421Z,22.00
2022-08-20T10:54:17.063Z,22.20
2022-08-20T10:56:43.642Z,22.10
2022-08-20T10:59:10.288Z,22.20
2022-08-20T11:01:37.058Z,22.30
2022-08-20T11:04:04.733Z,22.30
2022-08-20T11:06:31.408Z,22.20
2022-08-20T11:08:58.018Z,22.10
2022-08-20T11:11:24.755Z,22.30
2022-08-20T11:13:51.378Z,22.30
2022-08-20T11:16:17.996Z,22.20
2022-08-20T11:18:47.665Z,22.20
2022-08-20T11:21:14.872Z,22.20
2022-08-20T11:23:41.503Z,22.20
2022-08-20T11:26:08.525Z,22.30
2022-08-20T11:28:35.226Z,22.30
2022-08-20T11:31:02.150Z,22.20
2022-08-20T11:33:28.946Z,22.20
2022-08-20T11:35:55.696Z,22.10
2022-08-20T11:38:22.300Z,22.20
2022-08-20T11:40:48.902Z,22.30
2022-08-20T11:43:17.445Z,22.30
2022-08-20T11:45:47.229Z,22.30
2022-08-20T11:48:14.050Z,22.30
2022-08-20T11:50:40.888Z,22.30
2022-08-20T11:53:08.081Z,22.30
2022-08-20T11:55:35.354Z,22.20
2022-08-20T11:58:02.083Z,22.20
2022-08-20T12:00:32.754Z,22.20
2022-08-20T12:03:01.947Z,22.20
2022-08-20T12:05:29.932Z,22.20
2022-08-20T12:07:57.583Z,22.20
2022-08-20T12:10:26.311Z,22.20
2022-08-20T12:12:53.015Z,22.20
2022-08-20T12:15:20.340Z,22.20
2022-08-20T12:17:47.049Z,22.20
2022-08-20T12:20:15.518Z,22.10
2022-08-20T12:22:43.770Z,22.10
2022-08-20T12:25:12.059Z,22.00
2022-08-20T12:27:39.411Z,21.90
2022-08-20T12:30:10.028Z,21.90
2022-08-20T12:32:37.221Z,21.90
2022-08-20T12:35:05.695Z,22.00
2022-08-20T12:37:32.541Z,21.90
2022-08-20T12:40:00.762Z,21.90
2022-08-20T12:42:30.336Z,21.90
2022-08-20T12:44:58.066Z,21.80
2022-08-20T12:47:27.834Z,21.80
2022-08-20T12:50:00.754Z,21.80
2022-08-20T12:52:28.919Z,21.80
2022-08-20T12:54:57.016Z,21.80
2022-08-20T12:57:28.768Z,21.80
2022-08-20T13:00:00.621Z,21.80
2022-08-20T13:02:30.602Z,21.80
2022-08-20T13:05:00.117Z,21.70
2022-08-20T13:07:29.243Z,21.80
2022-08-20T13:09:55.830Z,21.70
2022-08-20T21:06:35.702Z,20.10
2022-08-20T21:09:02.546Z,20.10
2022-08-20T21:11:29.404Z,20.20
2022-08-20T21:13:56.083Z,20.20
2022-08-20T21:16:22.703Z,20.20
2022-08-20T21:18:49.324Z,20.20
2022-08-20T21:21:16.128Z,20.30
2022-08-20T21:23:42.796Z,20.30
2022-08-20T21:26:09.759Z,20.20
2022-08-20T21:28:36.477Z,20.20
2022-08-20T21:31:03.348Z,20.20
2022-08-20T21:33:30.028Z,20.20
2022-08-20T21:35:56.912Z,20.20
2022-08-20T21:38:23.937Z,20.30
2022-08-20T21:40:51.109Z,20.30
2022-08-20T21:43:18.820Z,20.20
2022-08-20T21:45:45.614Z,20.30
2022-08-20T21:48:16.241Z,20.30
2022-08-20T21:50:43.560Z,20.30
2022-08-20T21:53:12.743Z,20.30
2022-08-20T21:55:40.789Z,20.30
2022-08-20T21:58:08.422Z,20.30
2022-08-20T22:00:46.993Z,20.30
2022-08-20T22:03:15.212Z,20.30
2022-08-20T22:05:43.923Z,20.20
2022-08-20T22:08:10.812Z,20.20
2022-08-20T22:10:37.878Z,20.10
2022-08-20T22:16:45.497Z,20.10
2022-08-20T22:19:15.984Z,20.10
2022-08-20T22:21:43.318Z,20.00
2022-08-20T22:24:11.007Z,20.00
2022-08-20T22:26:40.250Z,20.00
2022-08-20T22:29:10.048Z,19.90
2022-08-20T22:31:39.381Z,19.90
2022-08-20T22:34:06.849Z,19.90
2022-08-20T22:36:33.823Z,19.90
2022-08-20T22:39:00.512Z,19.90
2022-08-20T22:41:27.977Z,19.90
2022-08-20T22:43:56.919Z,19.90
2022-08-20T22:46:26.496Z,19.90
2022-08-20T22:48:53.941Z,19.90
2022-08-20T22:51:29.180Z,19.90
2022-08-20T22:53:57.232Z,19.90
2022-08-20T22:56:23.883Z,19.90
2022-08-20T22:58:51.006Z,19.90
2022-08-20T23:01:20.038Z,20.00
2022-08-20T23:03:46.859Z,19.90
2022-08-20T23:06:13.774Z,20.00
2022-08-20T23:08:41.815Z,20.00
2022-08-20T23:11:09.166Z,20.00
2022-08-20T23:13:35.894Z,20.00
2022-08-20T23:16:03.248Z,20.00
2022-08-20T23:18:30.176Z,20.00
2022-08-20T23:20:59.009Z,20.00
2022-08-20T23:23:27.104Z,20.00
2022-08-20T23:25:54.618Z,20.00
2022-08-20T23:28:24.370Z,19.90
2022-08-20T23:30:51.385Z,19.90
2022-08-20T23:33:18.458Z,19.90
2022-08-20T23:35:45.896Z,19.90
2022-08-20T23:38:12.802Z,19.90
2022-08-20T23:40:40.014Z,19.90
2022-08-20T23:43:06.901Z,19.90
